Latest Weather Observations for Hillarys Point Boat Harbour

IDW60901

Issued at 7:51 am WST Friday 19 August 2022 (issued every 10 minutes, with the page automatically refreshed every 10 minutes)

About weather observations | Map of Perth area stations | Latest observations for Perth area | Other Formats
Station Details ID: 009265 Name: HILLARYS BOAT HARBOUR NTC AWS Lat: -31.83 Lon: 115.74 Height: 0.0 m
Data from the previous 72 hours. | See also: Recent months for locations in Western Australia
Date/Time
WST
Temp
°C
App
Temp
°C
Dew
Point
°C
Rel
Hum
%
Delta-T
°C
Wind Press
QNH
hPa
Press
MSL
hPa
Rain since
9am
mm
Dir  Spd
km/h
Gust
km/h
Spd
kts
Gust
kts
19/07:30am 12.4 - - - - NE 6 9 3 5 1029.2 1029.2 -
19/07:00am 12.4 - - - - NE 6 9 3 5 1029.0 1029.0 -
19/06:30am 12.4 - - - - NE 6 9 3 5 1028.7 1028.7 -
19/06:00am 12.8 - - - - NE 7 11 4 6 1028.5 1028.5 -
19/05:30am 13.1 - - - - NE 6 7 3 4 1028.3 1028.3 -
19/05:00am 13.3 - - - - ENE 7 11 4 6 1028.1 1028.1 -
19/04:30am 12.5 - - - - ENE 6 11 3 6 1028.1 1028.1 -
19/04:00am 13.2 - - - - ENE 4 6 2 3 1027.9 1027.9 -
19/03:30am 13.0 - - - - ENE 6 7 3 4 1027.9 1027.9 -
19/03:00am 13.1 - - - - ENE 4 6 2 3 1027.9 1027.9 -
19/02:30am 12.9 - - - - ENE 6 7 3 4 1027.9 1027.9 -
19/02:00am 12.7 - - - - NE 6 9 3 5 1027.9 1027.9 -
19/01:30am 12.7 - - - - NE 7 11 4 6 1028.1 1028.1 -
19/01:00am 13.0 - - - - NE 6 9 3 5 1028.1 1028.1 -
19/12:30am 13.3 - - - - E 6 9 3 5 1028.0 1028.0 -
19/12:00am 13.8 - - - - ENE 4 6 2 3 1028.3 1028.3 -
 
Date/Time
WST
Temp
°C
App
Temp
°C
Dew
Point
°C
Rel
Hum
%
Delta-T
°C
Wind Press
QNH
hPa
Press
MSL
hPa
Rain since
9am
mm
Dir  Spd
km/h
Gust
km/h
Spd
kts
Gust
kts
18/11:30pm 13.5 - - - - ENE 7 13 4 7 1028.4 1028.4 -
18/11:00pm 13.6 - - - - NE 6 7 3 4 1028.3 1028.3 -
18/10:30pm 13.5 - - - - ENE 6 9 3 5 1028.5 1028.5 -
18/10:00pm 14.4 - - - - WNW 6 11 3 6 1028.5 1028.5 -
18/09:30pm 16.5 - - - - WSW 9 15 5 8 1028.4 1028.4 -
18/09:00pm 16.2 - - - - WNW 6 13 3 7 1028.4 1028.4 -
18/08:30pm 16.1 - - - - NW 6 11 3 6 1028.4 1028.4 -
18/08:00pm 16.0 - - - - WNW 7 11 4 6 1028.4 1028.4 -
18/07:30pm 15.9 - - - - WNW 7 11 4 6 1028.2 1028.2 -
18/07:00pm 15.7 - - - - WNW 4 9 2 5 1028.0 1028.0 -
18/06:30pm 15.7 - - - - WNW 7 13 4 7 1027.8 1027.8 -
18/06:00pm 15.7 - - - - W 6 9 3 5 1027.6 1027.6 -
18/05:30pm 15.9 - - - - WNW 4 7 2 4 1027.4 1027.4 -
18/05:00pm 16.1 - - - - WNW 6 9 3 5 1027.3 1027.3 -
18/04:30pm 16.4 - - - - NW 6 9 3 5 1027.3 1027.3 -
18/04:00pm 16.2 - - - - NW 7 11 4 6 1027.3 1027.3 -
18/03:30pm 16.2 - - - - WNW 6 11 3 6 1027.4 1027.4 -
18/03:00pm 16.1 - - - - W 7 13 4 7 1027.4 1027.4 -
18/02:30pm 15.8 - - - - WNW 7 11 4 6 1027.2 1027.2 -
18/02:00pm 15.7 - - - - NW 6 11 3 6 1027.1 1027.1 -
18/01:30pm 15.5 - - - - W 6 9 3 5 1027.1 1027.1 -
18/01:00pm 15.4 - - - - W 6 9 3 5 1027.4 1027.4 -
18/12:30pm 15.7 - - - - WNW 6 9 3 5 1027.6 1027.6 -
18/12:00pm 15.8 - - - - WNW 6 9 3 5 1027.8 1027.8 -
18/11:30am 15.5 - - - - NNE 6 11 3 6 1028.0 1028.0 -
18/11:00am 15.1 - - - - NE 7 15 4 8 1028.0 1028.0 -
18/10:30am 14.3 - - - - NE 9 13 5 7 1027.9 1027.9 -
18/10:00am 13.8 - - - - NE 6 13 3 7 1027.9 1027.9 -
18/09:30am 12.7 - - - - NE 7 13 4 7 1027.8 1027.8 -
18/09:00am 11.3 - - - - NE 7 13 4 7 1027.8 1027.8 -
18/08:30am 10.0 - - - - NE 6 11 3 6 1027.5 1027.5 -
18/08:00am 8.8 - - - - NE 7 13 4 7 1027.1 1027.1 -
18/07:30am 7.9 - - - - NE 7 13 4 7 1026.5 1026.5 -
18/07:00am 7.4 - - - - NE 6 9 3 5 1026.0 1026.0 -
18/06:30am 7.1 - - - - NE 6 9 3 5 1025.5 1025.5 -
18/06:00am 6.9 - - - - ENE 7 11 4 6 1025.0 1025.0 -
18/05:30am 6.8 - - - - ENE 11 15 6 8 1024.8 1024.8 -
18/05:00am 6.8 - - - - ENE 11 15 6 8 1024.5 1024.5 -
18/04:30am 6.9 - - - - ENE 9 13 5 7 1024.1 1024.1 -
18/04:00am 6.9 - - - - ENE 9 15 5 8 1023.9 1023.9 -
18/03:30am 7.6 - - - - ENE 7 11 4 6 1024.0 1024.0 -
18/03:00am 7.6 - - - - ENE 9 13 5 7 1023.3 1023.3 -
18/02:30am 8.3 - - - - ENE 6 9 3 5 1023.5 1023.5 -
18/02:00am 8.3 - - - - ENE 6 7 3 4 1023.2 1023.2 -
18/01:30am 8.0 - - - - ENE 4 6 2 3 1023.2 1023.2 -
18/01:00am 8.6 - - - - ENE 2 4 1 2 1022.9 1022.9 -
18/12:30am 8.5 - - - - ENE 2 4 1 2 1022.5 1022.5 -
18/12:00am 8.6 - - - - NE 2 4 1 2 1022.2 1022.2 -
 
Date/Time
WST
Temp
°C
App
Temp
°C
Dew
Point
°C
Rel
Hum
%
Delta-T
°C
Wind Press
QNH
hPa
Press
MSL
hPa
Rain since
9am
mm
Dir  Spd
km/h
Gust
km/h
Spd
kts
Gust
kts
17/11:30pm 9.0 - - - - ENE 4 4 2 2 1022.1 1022.1 -
17/11:00pm 9.2 - - - - ENE 2 4 1 2 1021.7 1021.7 -
17/10:30pm 9.3 - - - - ENE 2 4 1 2 1021.3 1021.3 -
17/10:00pm 9.5 - - - - ENE 2 2 1 1 1021.0 1021.0 -
17/09:30pm 9.7 - - - - ENE 2 4 1 2 1020.6 1020.6 -
17/09:00pm 10.2 - - - - ESE 2 4 1 2 1019.7 1019.7 -
17/08:30pm 10.1 - - - - E 4 7 2 4 1018.6 1018.6 -
17/08:00pm 11.2 - - - - SSE 13 24 7 13 1018.3 1018.3 -
17/07:30pm 10.9 - - - - SSE 9 19 5 10 1017.7 1017.7 -
17/07:00pm 10.6 - - - - SSE 11 20 6 11 1016.9 1016.9 -
17/06:30pm 10.7 - - - - SSE 17 28 9 15 1015.7 1015.7 -
17/06:00pm 12.4 - - - - S 11 26 6 14 1014.2 1014.2 -
17/05:30pm 14.0 - - - - SW 32 44 17 24 1013.6 1013.6 -
17/05:00pm 13.6 - - - - SW 26 41 14 22 1013.0 1013.0 -
17/04:53pm 14.1 - - - - WSW 28 41 15 22 1012.9 1012.9 -
17/04:30pm 14.5 - - - - WSW 11 20 6 11 1012.3 1012.3 -
17/04:00pm 14.1 - - - - W 9 22 5 12 1012.2 1012.2 -
17/03:30pm 11.8 - - - - SSE 4 6 2 3 1011.7 1011.7 -
17/03:00pm 12.0 - - - - SW 17 28 9 15 1011.4 1011.4 -
17/02:30pm 12.7 - - - - SW 15 28 8 15 1011.3 1011.3 -
17/02:00pm 12.4 - - - - WSW 22 35 12 19 1011.5 1011.5 -
17/01:31pm 14.9 - - - - WSW 28 50 15 27 1010.5 1010.5 -
17/01:30pm 14.5 - - - - WSW 26 44 14 24 1010.5 1010.5 -
17/01:00pm 16.1 - - - - WSW 22 33 12 18 1010.6 1010.6 -
17/12:30pm 15.5 - - - - SW 15 32 8 17 1011.0 1011.0 -
17/12:00pm 15.4 - - - - SW 19 26 10 14 1011.8 1011.8 -
17/11:30am 16.1 - - - - W 24 41 13 22 1011.9 1011.9 -
17/11:00am 15.8 - - - - W 24 43 13 23 1011.8 1011.8 -
17/10:30am 15.7 - - - - W 30 48 16 26 1012.3 1012.3 -
17/10:29am 15.8 - - - - W 28 48 15 26 1012.3 1012.3 -
17/10:00am 15.5 - - - - W 28 43 15 23 1012.0 1012.0 -
17/09:30am 14.6 - - - - WSW 28 43 15 23 1011.9 1011.9 -
17/09:00am 13.4 - - - - W 41 72 22 39 1012.5 1012.5 -
17/08:50am 15.1 - - - - W 28 72 15 39 1012.1 1012.1 -
17/08:30am 14.4 - - - - WSW 28 50 15 27 1011.3 1011.3 -
17/08:10am 14.2 - - - - WSW 37 56 20 30 1010.9 1010.9 -
17/08:00am 14.2 - - - - WSW 44 61 24 33 1010.9 1010.9 -
17/07:30am 15.1 - - - - W 28 46 15 25 1010.4 1010.4 -
17/07:21am 14.8 - - - - WSW 28 48 15 26 1010.2 1010.2 -
17/07:00am 14.5 - - - - WSW 41 56 22 30 1010.0 1010.0 -
17/06:33am 15.1 - - - - WSW 28 56 15 30 1009.4 1009.4 -
17/06:30am 15.2 - - - - W 26 43 14 23 1009.1 1009.1 -
17/06:00am 14.7 - - - - W 32 50 17 27 1009.2 1009.2 -
17/05:55am 14.5 - - - - WSW 37 54 20 29 1009.1 1009.1 -
17/05:54am 14.4 - - - - WSW 39 56 21 30 1009.1 1009.1 -
17/05:36am 13.6 - - - - WSW 44 74 24 40 1009.0 1009.0 -
17/05:35am 13.4 - - - - WSW 43 74 23 40 1009.0 1009.0 -
17/05:30am 13.7 - - - - W 35 59 19 32 1008.7 1008.7 -
17/05:01am 15.1 - - - - W 35 61 19 33 1007.9 1007.9 -
17/05:00am 15.1 - - - - W 35 61 19 33 1007.9 1007.9 -
17/04:30am 12.0 - - - - W 33 61 18 33 1008.7 1008.7 -
17/04:00am 15.0 - - - - W 33 69 18 37 1007.1 1007.1 -
17/03:47am 16.2 - - - - W 32 52 17 28 1006.7 1006.7 -
17/03:45am 16.2 - - - - W 32 50 17 27 1006.8 1006.8 -
17/03:30am 14.6 - - - - WNW 15 30 8 16 1006.6 1006.6 -
17/03:01am 14.6 - - - - WSW 30 48 16 26 1006.7 1006.7 -
17/03:00am 14.5 - - - - WSW 32 48 17 26 1006.7 1006.7 -
17/02:30am 15.9 - - - - WNW 28 54 15 29 1006.8 1006.8 -
17/02:25am 16.3 - - - - WNW 28 54 15 29 1006.7 1006.7 -
17/02:00am 16.4 - - - - WNW 24 44 13 24 1006.9 1006.9 -
17/01:30am 16.1 - - - - WNW 24 43 13 23 1006.7 1006.7 -
17/01:00am 15.4 - - - - W 28 44 15 24 1007.2 1007.2 -
17/12:44am 15.9 - - - - WNW 33 67 18 36 1007.4 1007.4 -
17/12:36am 16.7 - - - - WNW 28 48 15 26 1007.0 1007.0 -
17/12:30am 16.5 - - - - WNW 26 46 14 25 1006.8 1006.8 -
17/12:00am 15.1 - - - - NNW 20 33 11 18 1007.3 1007.3 -
 
Date/Time
WST
Temp
°C
App
Temp
°C
Dew
Point
°C
Rel
Hum
%
Delta-T
°C
Wind Press
QNH
hPa
Press
MSL
hPa
Rain since
9am
mm
Dir  Spd
km/h
Gust
km/h
Spd
kts
Gust
kts
16/11:30pm 14.2 - - - - NW 11 22 6 12 1007.9 1007.9 -
16/11:00pm 14.6 - - - - NW 30 54 16 29 1008.7 1008.7 -
16/10:54pm 16.8 - - - - NW 28 46 15 25 1007.9 1007.9 -
16/10:30pm 16.5 - - - - NW 24 41 13 22 1007.5 1007.5 -
16/10:08pm 14.3 - - - - WNW 24 61 13 33 1008.1 1008.1 -
16/10:00pm 17.2 - - - - WNW 22 39 12 21 1007.7 1007.7 -
16/09:30pm 16.8 - - - - W 22 37 12 20 1007.8 1007.8 -
16/09:00pm 17.3 - - - - NW 19 39 10 21 1007.8 1007.8 -
16/08:30pm 16.1 - - - - NW 24 46 13 25 1008.0 1008.0 -
16/08:00pm 17.4 - - - - WNW 20 39 11 21 1007.9 1007.9 -
16/07:30pm 17.3 - - - - WNW 19 39 10 21 1008.0 1008.0 -
16/07:00pm 17.2 - - - - WNW 22 39 12 21 1007.7 1007.7 -
16/06:30pm 17.5 - - - - WNW 24 43 13 23 1007.6 1007.6 -
16/06:00pm 17.2 - - - - WNW 22 39 12 21 1007.4 1007.4 -
16/05:30pm 17.7 - - - - W 22 35 12 19 1007.3 1007.3 -
16/05:00pm 17.8 - - - - WNW 24 43 13 23 1007.0 1007.0 -
16/04:30pm 17.8 - - - - WNW 20 39 11 21 1006.8 1006.8 -
16/04:00pm 18.0 - - - - WNW 24 37 13 20 1006.6 1006.6 -
16/03:30pm 17.9 - - - - WNW 22 37 12 20 1006.3 1006.3 -
16/03:00pm 18.1 - - - - WNW 20 33 11 18 1006.1 1006.1 -
16/02:30pm 17.9 - - - - WNW 22 39 12 21 1006.0 1006.0 -
16/02:00pm 17.9 - - - - W 24 39 13 21 1005.9 1005.9 -
16/01:30pm 18.2 - - - - W 22 39 12 21 1005.8 1005.8 -
16/01:07pm 18.2 - - - - W 28 48 15 26 1005.7 1005.7 -
16/01:00pm 18.2 - - - - W 32 48 17 26 1005.7 1005.7 -
16/12:30pm 17.8 - - - - W 20 33 11 18 1005.6 1005.6 -
16/12:00pm 16.8 - - - - W 19 33 10 18 1005.8 1005.8 -
16/11:30am 16.2 - - - - WNW 19 30 10 16 1006.0 1006.0 -
16/11:00am 16.2 - - - - W 26 46 14 25 1006.6 1006.6 -
16/10:52am 16.0 - - - - WSW 33 56 18 30 1006.1 1006.1 -
16/10:45am 16.2 - - - - W 26 56 14 30 1006.3 1006.3 -
16/10:30am 17.6 - - - - W 20 32 11 17 1006.3 1006.3 -
16/10:00am 16.4 - - - - W 15 26 8 14 1005.8 1005.8 -
16/09:30am 15.5 - - - - WSW 26 37 14 20 1006.2 1006.2 -
16/09:16am 15.8 - - - - W 28 50 15 27 1006.1 1006.1 -
16/09:00am 17.4 - - - - W 22 37 12 20 1005.6 1005.6 -
16/08:30am 16.9 - - - - W 24 46 13 25 1005.1 1005.1 -
16/08:00am 18.7 - - - - WNW 13 26 7 14 1004.2 1004.2 -

Latest Capital City Observations: Canberra | Sydney | Melbourne | Brisbane | Adelaide | Perth | Hobart | Darwin

Other formats

Comma delimited format used in spreadsheet applications
http://www.bom.gov.au/fwo/IDW60901/IDW60901.95605.axf

JavaScript Object Notation format (JSON) in row-major order
http://www.bom.gov.au/fwo/IDW60901/IDW60901.95605.json

Data quality

Most of these data are generated automatically and are frequently updated. Quality checks on data are not normally performed. It is possible for incorrect values to appear. Refer to information at About Latest Weather Observations and please check the disclaimer before using these data.